createdAt,value
2023-05-07T00:02:12.193Z,7.82
2023-05-07T00:04:40.035Z,6.65
2023-05-07T00:07:07.380Z,7.53
2023-05-07T00:09:34.927Z,7.68
2023-05-07T00:12:02.487Z,7.57
2023-05-07T00:14:30.038Z,8.00
2023-05-07T00:16:57.293Z,8.52
2023-05-07T00:19:24.832Z,8.07
2023-05-07T00:21:54.591Z,9.35
2023-05-07T00:24:22.064Z,8.73
2023-05-07T00:26:49.438Z,9.85
2023-05-07T00:29:17.080Z,10.63
2023-05-07T00:31:44.362Z,8.68
2023-05-07T00:34:11.969Z,9.23
2023-05-07T00:36:39.178Z,9.35
2023-05-07T00:39:06.816Z,11.07
2023-05-07T00:41:34.103Z,12.15
2023-05-07T00:44:03.478Z,13.20
2023-05-07T00:46:33.938Z,13.63
2023-05-07T00:49:02.400Z,11.70
2023-05-07T00:51:32.012Z,13.60
2023-05-07T00:54:00.988Z,12.90
2023-05-07T00:56:28.630Z,14.40
2023-05-07T00:58:56.793Z,12.18
2023-05-07T01:01:24.137Z,19.92
2023-05-07T01:03:51.779Z,15.95
2023-05-07T01:06:22.363Z,13.93
2023-05-07T01:08:52.062Z,13.02
2023-05-07T01:11:21.495Z,10.68
2023-05-07T01:13:51.274Z,11.68
2023-05-07T01:16:18.763Z,12.80
2023-05-07T01:18:49.198Z,11.88
2023-05-07T01:21:19.192Z,10.90
2023-05-07T01:23:48.377Z,10.95
2023-05-07T01:26:15.785Z,14.15
2023-05-07T01:28:43.346Z,15.18
2023-05-07T01:31:11.416Z,15.48
2023-05-07T01:33:42.320Z,16.38
2023-05-07T01:36:12.024Z,13.95
2023-05-07T01:38:42.519Z,15.10
2023-05-07T01:41:09.801Z,16.63
2023-05-07T01:43:37.717Z,13.80
2023-05-07T01:46:06.174Z,14.80
2023-05-07T01:48:35.644Z,12.63
2023-05-07T01:51:04.251Z,10.90
2023-05-07T01:53:41.862Z,9.82
2023-05-07T01:56:09.192Z,8.63
2023-05-07T01:58:37.056Z,8.93
2023-05-07T02:01:04.353Z,10.27
2023-05-07T02:03:32.020Z,10.25
2023-05-07T02:05:59.358Z,10.15
2023-05-07T02:08:26.897Z,10.68
2023-05-07T02:10:54.981Z,10.73
2023-05-07T02:13:23.880Z,10.00
2023-05-07T02:15:51.738Z,10.20
2023-05-07T02:18:19.297Z,9.55
2023-05-07T02:20:46.505Z,11.00
2023-05-07T02:23:14.025Z,10.93
2023-05-07T02:25:41.377Z,12.30
2023-05-07T02:28:08.982Z,10.82
2023-05-07T02:30:37.907Z,14.18
2023-05-07T02:33:05.711Z,13.80
2023-05-07T02:35:33.042Z,10.10
2023-05-07T02:38:00.584Z,9.82
2023-05-07T02:40:27.811Z,9.10
2023-05-07T02:42:55.426Z,11.20
2023-05-07T02:45:22.706Z,9.93
2023-05-07T02:47:50.284Z,9.25
2023-05-07T02:50:17.734Z,10.75
2023-05-07T02:52:45.188Z,9.82
2023-05-07T02:55:12.540Z,9.45
2023-05-07T02:57:40.008Z,12.65
2023-05-07T03:00:21.027Z,11.20
2023-05-07T03:02:48.523Z,9.18
2023-05-07T03:05:15.855Z,7.60
2023-05-07T03:07:46.395Z,7.60
2023-05-07T03:10:14.837Z,6.32
2023-05-07T03:12:42.410Z,6.68
2023-05-07T03:15:11.541Z,5.68
2023-05-07T03:17:39.491Z,5.40
2023-05-07T03:20:08.260Z,5.90
2023-05-07T03:22:36.080Z,5.78
2023-05-07T03:25:03.576Z,4.95
2023-05-07T03:27:31.353Z,4.75
2023-05-07T03:29:58.627Z,4.68
2023-05-07T03:32:26.369Z,4.60
2023-05-07T03:34:53.658Z,4.30
2023-05-07T03:37:22.755Z,4.32
2023-05-07T03:39:49.956Z,4.35
2023-05-07T03:42:17.624Z,4.38
2023-05-07T03:44:44.858Z,4.88
2023-05-07T03:47:12.444Z,4.30
2023-05-07T03:49:39.882Z,4.55
2023-05-07T03:52:07.871Z,3.45
2023-05-07T03:54:35.096Z,3.35
2023-05-07T03:57:02.842Z,3.30
2023-05-07T03:59:30.075Z,3.35
2023-05-07T04:01:57.667Z,3.47
2023-05-07T04:04:25.240Z,3.50
2023-05-07T04:06:53.096Z,3.47
2023-05-07T04:09:20.281Z,3.72
2023-05-07T04:11:47.859Z,3.75
2023-05-07T04:14:15.161Z,3.75
2023-05-07T04:16:42.683Z,3.58
2023-05-07T04:19:09.914Z,4.15
2023-05-07T04:21:37.448Z,3.15
2023-05-07T04:24:05.277Z,3.38
2023-05-07T04:26:32.776Z,3.40
2023-05-07T04:29:00.837Z,3.20
2023-05-07T04:31:28.487Z,3.15
2023-05-07T04:33:55.761Z,3.00
2023-05-07T04:36:23.300Z,3.10
2023-05-07T04:38:50.665Z,3.20
2023-05-07T04:41:18.662Z,3.67
2023-05-07T04:43:46.713Z,6.45
2023-05-07T04:46:14.558Z,10.15
2023-05-07T04:48:41.815Z,8.85
2023-05-07T04:51:09.332Z,5.60
2023-05-07T04:53:36.689Z,4.65
2023-05-07T04:56:04.528Z,5.90
2023-05-07T04:58:32.983Z,7.22
2023-05-07T05:01:01.635Z,6.75
2023-05-07T05:03:29.109Z,6.07
2023-05-07T05:05:56.686Z,7.03
2023-05-07T05:08:24.056Z,4.20
2023-05-07T05:10:51.890Z,5.25
2023-05-07T05:13:19.236Z,6.07
2023-05-07T05:15:47.040Z,5.45
2023-05-07T05:18:14.361Z,5.40
2023-05-07T05:20:41.929Z,6.15
2023-05-07T05:23:09.515Z,4.78
2023-05-07T05:25:37.062Z,5.50
2023-05-07T05:28:04.618Z,6.63
2023-05-07T05:30:32.160Z,4.57
2023-05-07T05:32:59.429Z,5.47
2023-05-07T05:35:26.984Z,7.85
2023-05-07T05:37:54.466Z,8.07
2023-05-07T05:40:21.981Z,6.97
2023-05-07T05:42:49.283Z,5.93
2023-05-07T05:45:17.000Z,5.30
2023-05-07T05:47:44.291Z,3.28
2023-05-07T05:50:12.254Z,3.50
2023-05-07T05:52:39.700Z,3.13
2023-05-07T05:55:08.038Z,2.70
2023-05-07T05:57:35.472Z,3.72
2023-05-07T06:00:04.152Z,5.53
2023-05-07T06:02:31.488Z,4.18
2023-05-07T06:04:59.137Z,5.97
2023-05-07T06:07:26.675Z,5.00
2023-05-07T06:09:54.166Z,4.50
2023-05-07T06:12:22.555Z,4.40
2023-05-07T06:14:50.093Z,2.90
2023-05-07T06:17:19.414Z,4.32
2023-05-07T06:19:48.559Z,5.70
2023-05-07T06:22:16.125Z,5.10
2023-05-07T06:24:44.128Z,5.03
2023-05-07T06:27:11.560Z,6.05
2023-05-07T06:29:39.094Z,5.20
2023-05-07T06:32:14.736Z,5.93
2023-05-07T06:34:42.405Z,3.28
2023-05-07T06:37:09.776Z,3.13
2023-05-07T06:39:37.314Z,3.08
2023-05-07T06:42:05.724Z,3.45
2023-05-07T06:44:33.417Z,2.92
2023-05-07T06:47:00.902Z,4.25
2023-05-07T06:49:28.569Z,3.80
2023-05-07T06:51:56.561Z,4.40
2023-05-07T06:54:24.600Z,5.75
2023-05-07T06:56:51.957Z,7.80
2023-05-07T06:59:20.500Z,7.65
2023-05-07T07:01:48.020Z,5.90
2023-05-07T07:04:15.862Z,4.20
2023-05-07T07:06:43.105Z,3.53
2023-05-07T07:09:10.690Z,3.47
2023-05-07T07:11:37.928Z,4.45
2023-05-07T07:14:06.485Z,5.22
2023-05-07T07:16:33.846Z,4.70
2023-05-07T07:19:01.447Z,5.72
2023-05-07T07:21:28.757Z,4.88
2023-05-07T07:23:56.425Z,6.57
2023-05-07T07:26:23.754Z,6.88
2023-05-07T07:28:51.274Z,6.25
2023-05-07T07:31:18.584Z,7.63
2023-05-07T07:33:46.507Z,5.72
2023-05-07T07:36:13.780Z,5.07
2023-05-07T07:38:41.387Z,5.03
2023-05-07T07:41:11.644Z,6.40
2023-05-07T07:43:39.178Z,4.50
2023-05-07T07:46:06.488Z,4.90
2023-05-07T07:48:34.739Z,5.38
2023-05-07T07:51:02.017Z,4.60
2023-05-07T07:53:29.775Z,5.30
2023-05-07T07:55:59.385Z,4.13
2023-05-07T07:58:27.350Z,4.22
2023-05-07T08:00:57.001Z,3.65
2023-05-07T08:03:24.978Z,3.55
2023-05-07T08:05:52.329Z,3.30
2023-05-07T08:08:19.892Z,3.75
2023-05-07T08:10:47.316Z,3.30
2023-05-07T08:13:14.975Z,2.60
2023-05-07T08:15:42.294Z,3.17
2023-05-07T08:18:10.587Z,2.95
2023-05-07T08:20:40.583Z,4.80
2023-05-07T08:23:08.735Z,5.00
2023-05-07T08:25:38.564Z,5.25
2023-05-07T08:28:08.355Z,4.35
2023-05-07T08:30:37.012Z,4.35
2023-05-07T08:33:05.207Z,4.18
2023-05-07T08:35:32.608Z,3.03
2023-05-07T08:38:00.178Z,2.83
2023-05-07T08:40:28.728Z,2.65
2023-05-07T08:42:59.054Z,4.90
2023-05-07T08:45:30.677Z,11.00
2023-05-07T08:48:03.501Z,4.50
2023-05-07T08:50:31.283Z,3.42
2023-05-07T08:52:59.117Z,2.97
2023-05-07T08:55:26.576Z,3.47
2023-05-07T08:57:54.166Z,4.50
2023-05-07T09:00:21.488Z,7.80
2023-05-07T09:02:49.513Z,3.47
2023-05-07T09:05:16.998Z,6.30
2023-05-07T09:07:44.675Z,4.45
2023-05-07T09:10:12.643Z,4.30
2023-05-07T09:12:41.539Z,3.10
2023-05-07T09:15:09.888Z,4.10
2023-05-07T09:17:38.237Z,4.65
2023-05-07T09:20:09.289Z,5.15
2023-05-07T09:22:39.673Z,6.15
2023-05-07T09:25:10.746Z,9.00
2023-05-07T09:27:38.899Z,6.88
2023-05-07T09:30:09.773Z,6.30
2023-05-07T09:32:41.497Z,3.30
2023-05-07T09:35:22.633Z,3.80
2023-05-07T09:37:51.048Z,3.40
2023-05-07T09:40:24.133Z,5.50
2023-05-07T09:42:52.202Z,3.05
2023-05-07T09:45:30.061Z,4.13
2023-05-07T09:47:59.826Z,3.40
2023-05-07T09:50:37.151Z,3.25
2023-05-07T09:53:06.758Z,4.07
2023-05-07T09:55:34.496Z,3.67
2023-05-07T09:58:05.819Z,2.75
2023-05-07T10:00:34.060Z,2.85
2023-05-07T10:03:04.795Z,9.02
2023-05-07T10:05:33.690Z,4.35
2023-05-07T10:08:04.514Z,2.97
2023-05-07T10:10:35.443Z,3.00
2023-05-07T10:13:07.191Z,10.88
2023-05-07T10:15:36.148Z,3.80
2023-05-07T10:18:07.336Z,3.60
2023-05-07T10:20:37.622Z,4.20
2023-05-07T10:23:07.084Z,3.40
2023-05-07T10:25:34.596Z,3.28
2023-05-07T10:28:09.733Z,3.30
2023-05-07T10:31:12.481Z,3.08
2023-05-07T10:33:42.070Z,2.92
2023-05-07T10:36:09.627Z,6.10
2023-05-07T10:38:37.809Z,3.88
2023-05-07T10:41:06.742Z,4.38
2023-05-07T10:43:46.125Z,3.60
2023-05-07T10:46:18.652Z,3.47
2023-05-07T10:49:05.458Z,3.90
2023-05-07T10:51:36.757Z,3.78
2023-05-07T10:54:13.832Z,4.18
2023-05-07T10:56:45.619Z,3.92
2023-05-07T10:59:43.337Z,4.60
2023-05-07T11:02:12.497Z,4.50
2023-05-07T11:04:41.355Z,5.05
2023-05-07T11:07:12.389Z,4.20
2023-05-07T11:10:02.158Z,3.78
2023-05-07T11:12:39.157Z,3.97
2023-05-07T11:15:16.831Z,4.30
2023-05-07T11:17:59.596Z,4.30
2023-05-07T11:20:53.145Z,4.93
2023-05-07T11:23:35.989Z,4.00
2023-05-07T11:26:15.448Z,9.20
2023-05-07T11:28:44.719Z,7.75
2023-05-07T11:31:13.042Z,5.22
2023-05-07T11:33:41.046Z,5.13
2023-05-07T11:36:10.071Z,5.22
2023-05-07T11:38:38.729Z,6.40
2023-05-07T11:41:06.810Z,6.55
2023-05-07T11:43:36.649Z,7.50
2023-05-07T11:46:13.461Z,7.60
2023-05-07T11:48:42.651Z,7.97
2023-05-07T11:51:12.333Z,9.10
2023-05-07T11:53:42.930Z,8.30
2023-05-07T11:56:13.279Z,8.98
2023-05-07T11:58:42.917Z,9.68
2023-05-07T12:01:13.082Z,8.55
2023-05-07T12:03:47.138Z,8.52
2023-05-07T12:06:17.749Z,7.57
2023-05-07T12:08:48.162Z,8.23
2023-05-07T12:11:25.092Z,7.60
2023-05-07T12:13:52.747Z,7.60
2023-05-07T12:16:21.575Z,8.27
2023-05-07T12:18:49.769Z,8.82
2023-05-07T12:21:18.413Z,7.75
2023-05-07T12:23:46.403Z,9.02
2023-05-07T12:26:14.079Z,9.15
2023-05-07T12:28:41.523Z,9.57
2023-05-07T12:31:09.600Z,9.27
2023-05-07T12:33:37.832Z,8.90
2023-05-07T12:36:10.911Z,10.05
2023-05-07T12:38:44.392Z,8.60
2023-05-07T12:41:13.585Z,8.80
2023-05-07T12:43:40.955Z,8.75
2023-05-07T12:46:09.659Z,8.52
2023-05-07T12:48:46.812Z,9.30
2023-05-07T12:51:16.252Z,8.57
2023-05-07T12:53:44.487Z,7.43
2023-05-07T12:56:12.222Z,7.10
2023-05-07T12:58:39.514Z,7.20
2023-05-07T13:01:10.843Z,6.68
2023-05-07T13:03:39.974Z,6.32
2023-05-07T13:06:11.154Z,6.60
2023-05-07T13:08:44.286Z,7.22
2023-05-07T13:11:13.506Z,7.00
2023-05-07T13:13:42.610Z,7.82
2023-05-07T13:16:12.880Z,7.80
2023-05-07T13:18:42.148Z,7.20
2023-05-07T13:21:11.312Z,6.93
2023-05-07T13:23:39.825Z,7.90
2023-05-07T13:26:24.684Z,7.40
2023-05-07T13:28:55.579Z,7.28
2023-05-07T13:31:23.542Z,7.35
2023-05-07T13:33:51.187Z,6.00
2023-05-07T13:36:18.811Z,6.60
2023-05-07T13:38:46.099Z,6.22
2023-05-07T13:41:14.252Z,6.05
2023-05-07T13:43:41.500Z,5.72
2023-05-07T13:46:09.189Z,6.07
2023-05-07T13:48:37.016Z,5.65
2023-05-07T13:51:04.613Z,6.05
2023-05-07T13:53:31.884Z,6.20
2023-05-07T13:55:59.508Z,5.68
2023-05-07T13:58:26.873Z,5.15
2023-05-07T14:00:54.474Z,5.72
2023-05-07T14:03:21.807Z,10.55
2023-05-07T14:05:50.570Z,9.93
2023-05-07T14:08:20.911Z,8.70
2023-05-07T14:10:48.532Z,8.07
2023-05-07T14:13:15.878Z,5.57
2023-05-07T14:15:47.394Z,5.03
2023-05-07T14:18:14.682Z,4.93
2023-05-07T14:20:44.324Z,5.43
2023-05-07T14:23:11.546Z,5.30
2023-05-07T14:25:39.352Z,10.82
2023-05-07T14:28:08.681Z,5.95
2023-05-07T14:30:36.690Z,4.88
2023-05-07T14:33:04.028Z,7.25
2023-05-07T14:35:31.623Z,9.82
2023-05-07T14:37:59.362Z,8.68
2023-05-07T14:40:27.037Z,7.65
2023-05-07T14:42:54.355Z,7.05
2023-05-07T14:45:22.699Z,9.27
2023-05-07T14:47:50.209Z,8.05
2023-05-07T14:50:17.910Z,6.15
2023-05-07T14:52:45.186Z,5.90
2023-05-07T14:55:14.103Z,6.72
2023-05-07T14:57:41.930Z,8.02
2023-05-07T15:00:10.807Z,9.27
2023-05-07T15:02:38.387Z,8.98
2023-05-07T15:05:07.218Z,10.07
2023-05-07T15:07:35.509Z,9.50
2023-05-07T15:10:03.219Z,7.35
2023-05-07T15:12:30.494Z,6.32
2023-05-07T15:14:58.130Z,7.07
2023-05-07T15:17:25.594Z,6.50
2023-05-07T15:19:54.433Z,7.25
2023-05-07T15:22:22.805Z,8.43
2023-05-07T15:24:50.440Z,7.78
2023-05-07T15:27:18.286Z,8.80
2023-05-07T15:29:45.900Z,7.57
2023-05-07T15:32:13.393Z,6.75
2023-05-07T15:34:41.049Z,6.85
2023-05-07T15:37:08.391Z,8.63
2023-05-07T15:39:36.183Z,15.52
2023-05-07T15:42:03.795Z,7.80
2023-05-07T15:44:35.477Z,9.48
2023-05-07T15:47:03.199Z,6.65
2023-05-07T15:49:31.183Z,6.40
2023-05-07T15:51:58.499Z,6.50
2023-05-07T15:54:26.279Z,7.60
2023-05-07T15:56:53.618Z,7.72
2023-05-07T15:59:21.857Z,6.00
2023-05-07T16:01:49.993Z,5.93
2023-05-07T16:04:17.779Z,5.72
2023-05-07T16:06:47.521Z,5.55
2023-05-07T16:09:16.844Z,6.55
2023-05-07T16:11:44.258Z,5.97
2023-05-07T16:14:11.961Z,6.40
2023-05-07T16:16:41.022Z,5.88
2023-05-07T16:19:08.864Z,5.70
2023-05-07T16:21:36.461Z,7.00
2023-05-07T16:24:04.806Z,6.32
2023-05-07T16:26:32.113Z,6.32
2023-05-07T16:29:01.921Z,5.75
2023-05-07T16:31:29.277Z,6.15
2023-05-07T16:33:56.982Z,6.43
2023-05-07T16:36:27.791Z,6.40
2023-05-07T16:38:56.016Z,5.72
2023-05-07T16:41:23.503Z,10.30
2023-05-07T16:43:51.515Z,8.40
2023-05-07T16:46:18.761Z,7.53
2023-05-07T16:48:46.370Z,5.97
2023-05-07T16:51:13.913Z,7.70
2023-05-07T16:53:41.603Z,8.10
2023-05-07T16:56:09.165Z,7.30
2023-05-07T16:58:36.691Z,7.07
2023-05-07T17:01:04.158Z,7.18
2023-05-07T17:03:32.380Z,7.43
2023-05-07T17:06:00.143Z,7.63
2023-05-07T17:08:27.949Z,7.35
2023-05-07T17:10:55.384Z,6.35
2023-05-07T17:13:23.096Z,6.57
2023-05-07T17:15:50.575Z,7.45
2023-05-07T17:18:18.235Z,6.40
2023-05-07T17:20:45.724Z,7.85
2023-05-07T17:23:13.820Z,7.47
2023-05-07T17:25:45.645Z,6.75
2023-05-07T17:28:13.537Z,6.72
2023-05-07T17:30:41.563Z,6.88
2023-05-07T17:33:20.047Z,6.60
2023-05-07T17:35:48.738Z,7.18
2023-05-07T17:38:16.432Z,6.60
2023-05-07T17:40:43.933Z,5.90
2023-05-07T17:43:11.762Z,6.20
2023-05-07T17:45:39.211Z,7.72
2023-05-07T17:48:07.313Z,6.70
2023-05-07T17:50:34.753Z,6.90
2023-05-07T17:53:02.528Z,6.15
2023-05-07T17:55:33.103Z,5.97
2023-05-07T17:58:03.357Z,5.88
2023-05-07T18:00:30.801Z,6.28
2023-05-07T18:03:00.218Z,6.13
2023-05-07T18:05:27.979Z,6.32
2023-05-07T18:07:56.324Z,6.55
2023-05-07T18:10:24.222Z,6.10
2023-05-07T18:12:51.956Z,6.28
2023-05-07T18:15:19.615Z,6.88
2023-05-07T18:17:47.301Z,6.13
2023-05-07T18:20:15.075Z,6.00
2023-05-07T18:22:42.741Z,6.32
2023-05-07T18:25:10.478Z,6.20
2023-05-07T18:27:38.165Z,6.10
2023-05-07T18:30:06.516Z,6.60
2023-05-07T18:32:34.211Z,6.63
2023-05-07T18:35:01.569Z,7.10
2023-05-07T18:37:29.948Z,7.43
2023-05-07T18:39:57.845Z,7.78
2023-05-07T18:42:25.554Z,6.47
2023-05-07T18:44:52.867Z,5.95
2023-05-07T18:47:20.512Z,5.22
2023-05-07T18:49:47.819Z,4.70
2023-05-07T18:52:17.346Z,4.53
2023-05-07T18:54:45.824Z,4.88
2023-05-07T18:57:13.473Z,4.75
2023-05-07T18:59:40.772Z,5.47
2023-05-07T19:02:08.343Z,6.45
2023-05-07T19:04:36.456Z,7.90
2023-05-07T19:07:04.101Z,6.38
2023-05-07T19:09:31.444Z,5.32
2023-05-07T19:11:59.489Z,4.40
2023-05-07T19:14:27.108Z,6.65
2023-05-07T19:16:54.782Z,6.30
2023-05-07T19:19:22.436Z,5.55
2023-05-07T19:21:50.907Z,4.85
2023-05-07T19:24:18.234Z,4.50
2023-05-07T19:26:45.918Z,4.72
2023-05-07T19:29:17.988Z,5.20
2023-05-07T19:31:46.370Z,4.97
2023-05-07T19:34:14.419Z,6.18
2023-05-07T19:36:42.328Z,10.90
2023-05-07T19:39:10.153Z,11.43
2023-05-07T19:41:38.195Z,5.85
2023-05-07T19:44:05.570Z,5.30
2023-05-07T19:46:33.624Z,5.85
2023-05-07T19:49:01.701Z,5.80
2023-05-07T19:51:32.540Z,5.40
2023-05-07T19:54:00.416Z,4.88
2023-05-07T19:56:28.177Z,5.22
2023-05-07T19:58:55.602Z,4.47
2023-05-07T20:01:23.435Z,5.50
2023-05-07T20:03:50.917Z,4.03
2023-05-07T20:06:18.746Z,3.95
2023-05-07T20:08:46.169Z,4.43
2023-05-07T20:11:14.358Z,4.25
2023-05-07T20:13:41.812Z,5.35
2023-05-07T20:16:09.602Z,4.70
2023-05-07T20:18:36.986Z,4.65
2023-05-07T20:21:05.374Z,4.55
2023-05-07T20:23:33.258Z,5.18
2023-05-07T20:26:01.616Z,5.10
2023-05-07T20:28:29.281Z,5.03
2023-05-07T20:30:57.002Z,5.45
2023-05-07T20:33:24.585Z,5.50
2023-05-07T20:35:52.203Z,5.28
2023-05-07T20:38:19.590Z,4.88
2023-05-07T20:40:47.388Z,5.20
2023-05-07T20:43:14.957Z,4.95
2023-05-07T20:45:42.680Z,4.47
2023-05-07T20:48:10.098Z,4.70
2023-05-07T20:50:37.809Z,4.57
2023-05-07T20:53:05.384Z,5.07
2023-05-07T20:55:33.089Z,4.93
2023-05-07T20:58:00.535Z,4.55
2023-05-07T21:00:28.240Z,5.22
2023-05-07T21:02:55.725Z,4.43
2023-05-07T21:05:23.548Z,4.43
2023-05-07T21:07:50.841Z,4.47
2023-05-07T21:10:18.515Z,4.30
2023-05-07T21:12:45.995Z,4.82
2023-05-07T21:15:13.692Z,4.80
2023-05-07T21:17:41.132Z,4.50
2023-05-07T21:20:09.555Z,4.45
2023-05-07T21:22:36.939Z,5.38
2023-05-07T21:25:05.332Z,4.68
2023-05-07T21:27:32.615Z,5.10
2023-05-07T21:30:04.901Z,4.70
2023-05-07T21:32:32.396Z,5.00
2023-05-07T21:35:03.078Z,4.72
2023-05-07T21:37:30.440Z,4.95
2023-05-07T21:39:58.023Z,4.82
2023-05-07T21:42:25.855Z,5.20
2023-05-07T21:44:53.533Z,4.85
2023-05-07T21:47:21.346Z,4.80
2023-05-07T21:49:49.011Z,4.95
2023-05-07T21:52:17.585Z,5.05
2023-05-07T21:54:45.267Z,5.10
2023-05-07T21:57:12.605Z,4.50
2023-05-07T21:59:40.323Z,4.20
2023-05-07T22:02:07.611Z,5.43
2023-05-07T22:04:35.578Z,4.45
2023-05-07T22:07:02.908Z,4.68
2023-05-07T22:09:30.562Z,4.50
2023-05-07T22:11:57.826Z,4.95
2023-05-07T22:14:25.532Z,6.10
2023-05-07T22:16:53.119Z,4.65
2023-05-07T22:19:21.360Z,4.78
2023-05-07T22:21:48.684Z,5.45
2023-05-07T22:24:16.424Z,5.10
2023-05-07T22:26:45.172Z,5.07
2023-05-07T22:29:12.818Z,5.10
2023-05-07T22:31:40.139Z,5.53
2023-05-07T22:34:07.955Z,4.68
2023-05-07T22:36:35.552Z,5.13
2023-05-07T22:39:07.149Z,4.60
2023-05-07T22:41:34.724Z,4.70
2023-05-07T22:44:03.159Z,4.80
2023-05-07T22:46:31.315Z,5.28
2023-05-07T22:48:58.973Z,4.72
2023-05-07T22:51:26.383Z,4.72
2023-05-07T22:53:54.161Z,5.03
2023-05-07T22:56:21.566Z,4.63
2023-05-07T22:58:49.690Z,4.47
2023-05-07T23:01:18.961Z,4.15
2023-05-07T23:03:46.799Z,4.53
2023-05-07T23:06:14.404Z,4.20
2023-05-07T23:08:42.050Z,4.15
2023-05-07T23:11:09.391Z,4.40
2023-05-07T23:13:37.045Z,4.35
2023-05-07T23:16:04.608Z,4.70
2023-05-07T23:18:32.724Z,4.65
2023-05-07T23:21:00.013Z,4.45
2023-05-07T23:23:33.639Z,4.85
2023-05-07T23:26:01.154Z,4.65
2023-05-07T23:28:28.946Z,4.07
2023-05-07T23:30:56.803Z,5.00
2023-05-07T23:33:24.505Z,4.10
2023-05-07T23:36:00.471Z,4.38
2023-05-07T23:38:28.177Z,4.38
2023-05-07T23:40:55.886Z,5.00
2023-05-07T23:43:23.797Z,5.00
2023-05-07T23:45:51.749Z,4.70
2023-05-07T23:48:19.696Z,4.95
2023-05-07T23:50:47.146Z,4.50
2023-05-07T23:53:14.760Z,4.40
2023-05-07T23:55:42.526Z,4.35
2023-05-07T23:58:10.582Z,4.20
